sensor_id;sensor_type;location;lat;lon;timestamp;P1;durP1;ratioP1;P2;durP2;ratioP2
5026;SDS011;2532;52.480;13.354;2023-06-22T04:02:03;17.17;;;14.00;;
5026;SDS011;2532;52.480;13.354;2023-06-22T04:04:31;15.20;;;13.60;;
5026;SDS011;2532;52.480;13.354;2023-06-22T04:07:00;17.20;;;13.73;;
5026;SDS011;2532;52.480;13.354;2023-06-22T04:09:36;18.70;;;14.90;;
5026;SDS011;2532;52.480;13.354;2023-06-22T04:12:14;14.30;;;12.80;;
5026;SDS011;2532;52.480;13.354;2023-06-22T04:14:42;15.83;;;13.90;;
5026;SDS011;2532;52.480;13.354;2023-06-22T04:17:11;16.20;;;13.60;;
5026;SDS011;2532;52.480;13.354;2023-06-22T04:19:39;14.77;;;12.47;;
5026;SDS011;2532;52.480;13.354;2023-06-22T04:22:06;14.73;;;12.60;;
5026;SDS011;2532;52.480;13.354;2023-06-22T04:24:33;17.27;;;12.63;;
5026;SDS011;2532;52.480;13.354;2023-06-22T04:27:00;16.27;;;12.43;;
5026;SDS011;2532;52.480;13.354;2023-06-22T04:29:28;17.10;;;13.73;;
5026;SDS011;2532;52.480;13.354;2023-06-22T04:31:55;12.23;;;10.60;;
5026;SDS011;2532;52.480;13.354;2023-06-22T04:34:24;13.47;;;10.83;;
5026;SDS011;2532;52.480;13.354;2023-06-22T04:36:52;13.43;;;11.70;;
5026;SDS011;2532;52.480;13.354;2023-06-22T04:39:19;12.63;;;11.03;;
5026;SDS011;2532;52.480;13.354;2023-06-22T04:41:46;16.87;;;13.40;;
5026;SDS011;2532;52.480;13.354;2023-06-22T04:44:13;14.30;;;12.00;;
5026;SDS011;2532;52.480;13.354;2023-06-22T04:46:48;15.53;;;11.17;;
5026;SDS011;2532;52.480;13.354;2023-06-22T04:49:19;13.63;;;12.00;;
5026;SDS011;2532;52.480;13.354;2023-06-22T04:51:48;15.57;;;12.03;;
5026;SDS011;2532;52.480;13.354;2023-06-22T04:54:16;14.30;;;11.10;;
5026;SDS011;2532;52.480;13.354;2023-06-22T04:56:43;17.23;;;11.00;;
5026;SDS011;2532;52.480;13.354;2023-06-22T04:59:11;16.07;;;10.20;;
5026;SDS011;2532;52.480;13.354;2023-06-22T05:01:39;13.70;;;10.53;;
5026;SDS011;2532;52.480;13.354;2023-06-22T05:04:06;13.87;;;10.97;;
5026;SDS011;2532;52.480;13.354;2023-06-22T05:06:32;13.67;;;10.67;;
5026;SDS011;2532;52.480;13.354;2023-06-22T05:09:01;11.03;;;9.27;;
5026;SDS011;2532;52.480;13.354;2023-06-22T05:11:30;12.00;;;9.77;;
5026;SDS011;2532;52.480;13.354;2023-06-22T05:13:57;12.93;;;9.73;;
5026;SDS011;2532;52.480;13.354;2023-06-22T05:16:24;15.00;;;11.50;;
5026;SDS011;2532;52.480;13.354;2023-06-22T05:18:51;13.60;;;10.43;;
5026;SDS011;2532;52.480;13.354;2023-06-22T05:21:21;11.40;;;9.50;;
5026;SDS011;2532;52.480;13.354;2023-06-22T05:23:49;14.50;;;9.70;;
5026;SDS011;2532;52.480;13.354;2023-06-22T05:26:17;12.47;;;10.17;;
5026;SDS011;2532;52.480;13.354;2023-06-22T05:28:45;22.13;;;10.77;;
5026;SDS011;2532;52.480;13.354;2023-06-22T05:31:13;14.63;;;9.60;;
5026;SDS011;2532;52.480;13.354;2023-06-22T05:33:40;14.97;;;9.93;;
5026;SDS011;2532;52.480;13.354;2023-06-22T05:36:07;13.57;;;8.90;;
5026;SDS011;2532;52.480;13.354;2023-06-22T05:38:35;12.83;;;9.90;;
5026;SDS011;2532;52.480;13.354;2023-06-22T05:41:02;16.03;;;9.90;;
5026;SDS011;2532;52.480;13.354;2023-06-22T05:43:30;16.70;;;9.60;;
5026;SDS011;2532;52.480;13.354;2023-06-22T05:45:57;17.00;;;12.67;;
5026;SDS011;2532;52.480;13.354;2023-06-22T05:48:24;12.03;;;9.30;;
5026;SDS011;2532;52.480;13.354;2023-06-22T05:50:52;12.03;;;10.40;;
5026;SDS011;2532;52.480;13.354;2023-06-22T05:53:19;12.13;;;10.60;;
5026;SDS011;2532;52.480;13.354;2023-06-22T05:55:46;12.50;;;9.30;;
5026;SDS011;2532;52.480;13.354;2023-06-22T05:58:13;12.03;;;9.90;;
5026;SDS011;2532;52.480;13.354;2023-06-22T06:00:41;11.93;;;8.80;;
5026;SDS011;2532;52.480;13.354;2023-06-22T06:03:09;16.90;;;10.97;;
5026;SDS011;2532;52.480;13.354;2023-06-22T06:05:37;12.43;;;8.60;;
5026;SDS011;2532;52.480;13.354;2023-06-22T06:08:04;16.50;;;12.63;;
5026;SDS011;2532;52.480;13.354;2023-06-22T06:10:32;15.00;;;9.83;;
5026;SDS011;2532;52.480;13.354;2023-06-22T06:13:00;14.00;;;11.37;;
5026;SDS011;2532;52.480;13.354;2023-06-22T06:15:29;16.73;;;10.40;;
5026;SDS011;2532;52.480;13.354;2023-06-22T06:17:58;11.57;;;9.60;;
5026;SDS011;2532;52.480;13.354;2023-06-22T06:20:26;18.30;;;12.73;;
5026;SDS011;2532;52.480;13.354;2023-06-22T06:22:53;13.00;;;10.10;;
5026;SDS011;2532;52.480;13.354;2023-06-22T06:25:21;10.40;;;8.30;;
5026;SDS011;2532;52.480;13.354;2023-06-22T06:27:49;14.67;;;9.70;;
5026;SDS011;2532;52.480;13.354;2023-06-22T06:30:19;13.17;;;10.23;;
5026;SDS011;2532;52.480;13.354;2023-06-22T06:32:46;14.17;;;10.37;;
5026;SDS011;2532;52.480;13.354;2023-06-22T06:35:15;13.80;;;10.83;;
5026;SDS011;2532;52.480;13.354;2023-06-22T06:37:43;8.83;;;7.30;;
5026;SDS011;2532;52.480;13.354;2023-06-22T06:40:11;10.70;;;7.50;;
5026;SDS011;2532;52.480;13.354;2023-06-22T06:42:40;11.70;;;7.47;;
5026;SDS011;2532;52.480;13.354;2023-06-22T06:45:09;16.23;;;11.07;;
5026;SDS011;2532;52.480;13.354;2023-06-22T06:47:37;10.60;;;8.83;;
5026;SDS011;2532;52.480;13.354;2023-06-22T06:50:05;10.00;;;7.50;;
5026;SDS011;2532;52.480;13.354;2023-06-22T06:52:34;11.53;;;6.97;;
5026;SDS011;2532;52.480;13.354;2023-06-22T06:55:01;8.17;;;6.83;;
5026;SDS011;2532;52.480;13.354;2023-06-22T06:57:30;11.37;;;7.70;;
5026;SDS011;2532;52.480;13.354;2023-06-22T06:59:57;8.30;;;7.10;;
5026;SDS011;2532;52.480;13.354;2023-06-22T07:02:25;10.47;;;7.43;;
5026;SDS011;2532;52.480;13.354;2023-06-22T07:04:53;14.00;;;10.53;;
5026;SDS011;2532;52.480;13.354;2023-06-22T07:07:21;10.40;;;8.87;;
5026;SDS011;2532;52.480;13.354;2023-06-22T07:09:49;10.10;;;7.20;;
5026;SDS011;2532;52.480;13.354;2023-06-22T07:12:16;9.37;;;6.10;;
5026;SDS011;2532;52.480;13.354;2023-06-22T07:14:43;6.30;;;5.70;;
5026;SDS011;2532;52.480;13.354;2023-06-22T07:17:10;12.33;;;9.07;;
5026;SDS011;2532;52.480;13.354;2023-06-22T07:19:37;12.80;;;6.77;;
5026;SDS011;2532;52.480;13.354;2023-06-22T07:22:05;10.57;;;6.10;;
5026;SDS011;2532;52.480;13.354;2023-06-22T07:24:32;7.90;;;6.37;;
5026;SDS011;2532;52.480;13.354;2023-06-22T07:27:00;9.03;;;6.30;;
5026;SDS011;2532;52.480;13.354;2023-06-22T07:29:28;6.30;;;5.03;;
5026;SDS011;2532;52.480;13.354;2023-06-22T07:31:59;7.67;;;5.33;;
5026;SDS011;2532;52.480;13.354;2023-06-22T07:34:29;6.80;;;5.13;;
5026;SDS011;2532;52.480;13.354;2023-06-22T07:36:56;6.90;;;5.07;;
5026;SDS011;2532;52.480;13.354;2023-06-22T07:39:23;10.87;;;5.40;;
5026;SDS011;2532;52.480;13.354;2023-06-22T07:41:51;9.00;;;5.37;;
5026;SDS011;2532;52.480;13.354;2023-06-22T07:44:19;7.30;;;5.80;;
5026;SDS011;2532;52.480;13.354;2023-06-22T07:46:46;6.60;;;4.70;;
5026;SDS011;2532;52.480;13.354;2023-06-22T07:49:13;5.43;;;4.40;;
5026;SDS011;2532;52.480;13.354;2023-06-22T07:51:40;8.00;;;5.93;;
5026;SDS011;2532;52.480;13.354;2023-06-22T07:54:07;8.10;;;5.83;;
5026;SDS011;2532;52.480;13.354;2023-06-22T07:56:36;5.80;;;5.20;;
5026;SDS011;2532;52.480;13.354;2023-06-22T07:59:03;6.20;;;5.60;;
5026;SDS011;2532;52.480;13.354;2023-06-22T08:01:31;4.90;;;4.40;;
5026;SDS011;2532;52.480;13.354;2023-06-22T08:03:58;5.83;;;4.60;;
5026;SDS011;2532;52.480;13.354;2023-06-22T08:06:25;7.40;;;4.30;;
5026;SDS011;2532;52.480;13.354;2023-06-22T08:08:52;5.33;;;4.60;;
5026;SDS011;2532;52.480;13.354;2023-06-22T08:11:22;6.40;;;4.53;;
5026;SDS011;2532;52.480;13.354;2023-06-22T08:13:50;7.10;;;5.50;;
5026;SDS011;2532;52.480;13.354;2023-06-22T08:16:17;6.00;;;4.70;;
5026;SDS011;2532;52.480;13.354;2023-06-22T08:18:45;7.80;;;5.77;;
5026;SDS011;2532;52.480;13.354;2023-06-22T08:21:12;5.27;;;4.40;;
5026;SDS011;2532;52.480;13.354;2023-06-22T08:23:39;6.20;;;4.70;;
5026;SDS011;2532;52.480;13.354;2023-06-22T08:26:06;5.77;;;4.70;;
5026;SDS011;2532;52.480;13.354;2023-06-22T08:28:33;12.23;;;5.30;;
5026;SDS011;2532;52.480;13.354;2023-06-22T08:31:00;7.73;;;4.77;;
5026;SDS011;2532;52.480;13.354;2023-06-22T08:33:28;7.80;;;5.00;;
5026;SDS011;2532;52.480;13.354;2023-06-22T08:35:57;6.73;;;6.03;;
5026;SDS011;2532;52.480;13.354;2023-06-22T08:38:25;10.90;;;4.80;;
5026;SDS011;2532;52.480;13.354;2023-06-22T08:40:52;8.17;;;5.53;;
5026;SDS011;2532;52.480;13.354;2023-06-22T08:43:19;6.87;;;5.30;;
5026;SDS011;2532;52.480;13.354;2023-06-22T08:45:46;6.23;;;5.03;;
5026;SDS011;2532;52.480;13.354;2023-06-22T08:48:13;15.07;;;7.53;;
5026;SDS011;2532;52.480;13.354;2023-06-22T08:50:40;7.87;;;6.10;;
5026;SDS011;2532;52.480;13.354;2023-06-22T08:53:08;7.30;;;5.30;;
5026;SDS011;2532;52.480;13.354;2023-06-22T08:55:35;7.93;;;6.37;;
5026;SDS011;2532;52.480;13.354;2023-06-22T08:58:02;7.57;;;5.97;;
5026;SDS011;2532;52.480;13.354;2023-06-22T09:00:30;6.87;;;5.53;;
5026;SDS011;2532;52.480;13.354;2023-06-22T09:02:59;6.37;;;5.67;;
5026;SDS011;2532;52.480;13.354;2023-06-22T09:05:26;7.63;;;5.37;;
5026;SDS011;2532;52.480;13.354;2023-06-22T09:07:56;17.77;;;8.17;;
5026;SDS011;2532;52.480;13.354;2023-06-22T09:10:26;6.63;;;5.80;;
5026;SDS011;2532;52.480;13.354;2023-06-22T09:12:53;8.63;;;6.50;;
5026;SDS011;2532;52.480;13.354;2023-06-22T09:15:20;10.93;;;8.70;;
5026;SDS011;2532;52.480;13.354;2023-06-22T09:17:47;5.83;;;5.13;;
5026;SDS011;2532;52.480;13.354;2023-06-22T09:20:14;5.53;;;4.93;;
5026;SDS011;2532;52.480;13.354;2023-06-22T09:22:41;6.53;;;5.23;;
5026;SDS011;2532;52.480;13.354;2023-06-22T09:25:08;10.53;;;9.33;;
5026;SDS011;2532;52.480;13.354;2023-06-22T09:27:37;9.20;;;6.83;;
5026;SDS011;2532;52.480;13.354;2023-06-22T09:30:04;6.00;;;4.60;;
5026;SDS011;2532;52.480;13.354;2023-06-22T09:32:32;7.30;;;5.80;;
5026;SDS011;2532;52.480;13.354;2023-06-22T09:35:02;11.70;;;4.27;;
5026;SDS011;2532;52.480;13.354;2023-06-22T09:37:31;6.17;;;5.03;;
5026;SDS011;2532;52.480;13.354;2023-06-22T09:39:59;5.27;;;4.77;;
5026;SDS011;2532;52.480;13.354;2023-06-22T09:42:25;5.43;;;4.83;;
5026;SDS011;2532;52.480;13.354;2023-06-22T09:44:54;9.17;;;4.60;;
5026;SDS011;2532;52.480;13.354;2023-06-22T09:47:21;5.70;;;4.43;;
5026;SDS011;2532;52.480;13.354;2023-06-22T09:49:48;7.07;;;5.80;;
5026;SDS011;2532;52.480;13.354;2023-06-22T09:52:15;7.03;;;5.47;;
5026;SDS011;2532;52.480;13.354;2023-06-22T09:54:42;9.27;;;6.40;;
5026;SDS011;2532;52.480;13.354;2023-06-22T09:57:09;6.83;;;4.90;;
5026;SDS011;2532;52.480;13.354;2023-06-22T09:59:36;9.33;;;6.67;;
5026;SDS011;2532;52.480;13.354;2023-06-22T10:02:06;8.70;;;5.63;;
5026;SDS011;2532;52.480;13.354;2023-06-22T10:04:33;6.53;;;5.40;;
5026;SDS011;2532;52.480;13.354;2023-06-22T10:07:01;6.83;;;5.30;;
5026;SDS011;2532;52.480;13.354;2023-06-22T10:09:28;7.47;;;5.40;;
5026;SDS011;2532;52.480;13.354;2023-06-22T10:11:55;7.27;;;5.73;;
5026;SDS011;2532;52.480;13.354;2023-06-22T10:14:22;6.20;;;4.67;;
5026;SDS011;2532;52.480;13.354;2023-06-22T10:16:51;7.60;;;6.50;;
5026;SDS011;2532;52.480;13.354;2023-06-22T10:19:26;7.10;;;6.33;;
5026;SDS011;2532;52.480;13.354;2023-06-22T10:21:53;10.10;;;6.97;;
5026;SDS011;2532;52.480;13.354;2023-06-22T10:24:20;9.50;;;5.57;;
5026;SDS011;2532;52.480;13.354;2023-06-22T10:26:47;9.50;;;5.37;;
5026;SDS011;2532;52.480;13.354;2023-06-22T10:29:14;9.43;;;5.80;;
5026;SDS011;2532;52.480;13.354;2023-06-22T10:31:41;7.57;;;5.60;;
5026;SDS011;2532;52.480;13.354;2023-06-22T10:34:08;8.43;;;6.60;;
5026;SDS011;2532;52.480;13.354;2023-06-22T10:36:36;6.87;;;6.00;;
5026;SDS011;2532;52.480;13.354;2023-06-22T10:39:03;6.63;;;5.37;;
5026;SDS011;2532;52.480;13.354;2023-06-22T10:41:31;8.23;;;6.33;;
5026;SDS011;2532;52.480;13.354;2023-06-22T10:43:57;7.90;;;5.70;;
5026;SDS011;2532;52.480;13.354;2023-06-22T10:46:24;8.33;;;5.60;;
5026;SDS011;2532;52.480;13.354;2023-06-22T10:48:56;17.90;;;5.77;;
5026;SDS011;2532;52.480;13.354;2023-06-22T10:51:23;5.60;;;5.10;;
5026;SDS011;2532;52.480;13.354;2023-06-22T10:53:52;7.97;;;5.70;;
5026;SDS011;2532;52.480;13.354;2023-06-22T10:56:20;5.43;;;4.63;;
5026;SDS011;2532;52.480;13.354;2023-06-22T10:58:47;7.43;;;6.13;;
5026;SDS011;2532;52.480;13.354;2023-06-22T11:01:22;10.23;;;5.90;;
5026;SDS011;2532;52.480;13.354;2023-06-22T11:03:49;5.63;;;5.03;;
5026;SDS011;2532;52.480;13.354;2023-06-22T11:06:18;15.70;;;5.83;;
5026;SDS011;2532;52.480;13.354;2023-06-22T11:08:45;7.10;;;5.80;;
5026;SDS011;2532;52.480;13.354;2023-06-22T11:11:13;7.33;;;5.40;;
5026;SDS011;2532;52.480;13.354;2023-06-22T11:13:42;7.93;;;6.57;;
5026;SDS011;2532;52.480;13.354;2023-06-22T11:16:11;6.03;;;5.43;;
5026;SDS011;2532;52.480;13.354;2023-06-22T11:18:46;8.17;;;5.83;;
5026;SDS011;2532;52.480;13.354;2023-06-22T11:21:13;9.10;;;6.03;;
5026;SDS011;2532;52.480;13.354;2023-06-22T11:23:41;7.00;;;6.10;;
5026;SDS011;2532;52.480;13.354;2023-06-22T11:26:08;5.77;;;5.20;;
5026;SDS011;2532;52.480;13.354;2023-06-22T11:28:36;7.73;;;5.27;;
5026;SDS011;2532;52.480;13.354;2023-06-22T11:31:03;6.20;;;5.30;;
5026;SDS011;2532;52.480;13.354;2023-06-22T11:33:32;15.63;;;7.13;;
5026;SDS011;2532;52.480;13.354;2023-06-22T11:35:59;7.70;;;6.87;;
5026;SDS011;2532;52.480;13.354;2023-06-22T11:38:26;13.63;;;9.63;;
5026;SDS011;2532;52.480;13.354;2023-06-22T11:40:53;8.87;;;5.90;;
5026;SDS011;2532;52.480;13.354;2023-06-22T11:43:19;7.13;;;6.43;;
5026;SDS011;2532;52.480;13.354;2023-06-22T11:45:48;6.77;;;5.90;;
5026;SDS011;2532;52.480;13.354;2023-06-22T11:48:15;10.10;;;6.70;;
5026;SDS011;2532;52.480;13.354;2023-06-22T11:50:42;7.63;;;6.63;;
5026;SDS011;2532;52.480;13.354;2023-06-22T11:53:09;6.70;;;5.97;;
5026;SDS011;2532;52.480;13.354;2023-06-22T11:55:36;6.13;;;5.33;;
5026;SDS011;2532;52.480;13.354;2023-06-22T11:58:03;10.97;;;8.53;;
5026;SDS011;2532;52.480;13.354;2023-06-22T12:00:31;6.17;;;5.13;;
5026;SDS011;2532;52.480;13.354;2023-06-22T12:02:59;5.97;;;5.37;;
5026;SDS011;2532;52.480;13.354;2023-06-22T12:05:26;8.03;;;6.90;;
5026;SDS011;2532;52.480;13.354;2023-06-22T12:07:53;8.23;;;5.77;;
5026;SDS011;2532;52.480;13.354;2023-06-22T12:10:20;8.57;;;5.43;;
5026;SDS011;2532;52.480;13.354;2023-06-22T12:12:47;6.67;;;5.43;;
5026;SDS011;2532;52.480;13.354;2023-06-22T12:15:14;6.00;;;5.40;;
5026;SDS011;2532;52.480;13.354;2023-06-22T12:17:41;8.80;;;6.17;;
5026;SDS011;2532;52.480;13.354;2023-06-22T12:20:10;7.40;;;6.27;;
5026;SDS011;2532;52.480;13.354;2023-06-22T12:22:37;6.30;;;5.70;;
5026;SDS011;2532;52.480;13.354;2023-06-22T12:25:04;7.10;;;5.73;;
5026;SDS011;2532;52.480;13.354;2023-06-22T12:27:32;7.80;;;6.03;;
5026;SDS011;2532;52.480;13.354;2023-06-22T12:29:59;6.77;;;6.07;;
5026;SDS011;2532;52.480;13.354;2023-06-22T12:32:25;9.70;;;5.80;;
5026;SDS011;2532;52.480;13.354;2023-06-22T12:34:52;6.07;;;5.50;;
5026;SDS011;2532;52.480;13.354;2023-06-22T12:37:21;6.40;;;5.67;;
5026;SDS011;2532;52.480;13.354;2023-06-22T12:39:48;8.17;;;5.30;;
5026;SDS011;2532;52.480;13.354;2023-06-22T12:42:15;7.13;;;5.87;;
5026;SDS011;2532;52.480;13.354;2023-06-22T12:44:42;9.77;;;7.80;;
5026;SDS011;2532;52.480;13.354;2023-06-22T12:47:09;7.43;;;6.73;;
5026;SDS011;2532;52.480;13.354;2023-06-22T12:49:36;6.83;;;5.93;;
5026;SDS011;2532;52.480;13.354;2023-06-22T12:52:04;8.20;;;5.67;;
5026;SDS011;2532;52.480;13.354;2023-06-22T12:54:37;6.87;;;6.00;;
5026;SDS011;2532;52.480;13.354;2023-06-22T12:57:04;7.70;;;6.60;;
5026;SDS011;2532;52.480;13.354;2023-06-22T12:59:32;6.50;;;5.87;;
5026;SDS011;2532;52.480;13.354;2023-06-22T13:01:59;23.80;;;7.60;;
5026;SDS011;2532;52.480;13.354;2023-06-22T13:04:25;12.27;;;4.90;;
5026;SDS011;2532;52.480;13.354;2023-06-22T13:06:52;8.57;;;6.90;;
5026;SDS011;2532;52.480;13.354;2023-06-22T13:09:19;7.57;;;6.77;;
5026;SDS011;2532;52.480;13.354;2023-06-22T13:11:48;7.43;;;5.87;;
5026;SDS011;2532;52.480;13.354;2023-06-22T13:14:15;7.90;;;6.67;;
5026;SDS011;2532;52.480;13.354;2023-06-22T13:16:42;9.50;;;6.07;;
5026;SDS011;2532;52.480;13.354;2023-06-22T13:19:09;7.67;;;6.00;;
5026;SDS011;2532;52.480;13.354;2023-06-22T13:21:36;7.60;;;6.03;;
5026;SDS011;2532;52.480;13.354;2023-06-22T13:24:03;7.30;;;5.90;;
5026;SDS011;2532;52.480;13.354;2023-06-22T13:26:31;8.37;;;6.67;;
5026;SDS011;2532;52.480;13.354;2023-06-22T13:29:00;10.43;;;7.60;;
5026;SDS011;2532;52.480;13.354;2023-06-22T13:31:26;10.33;;;6.40;;
5026;SDS011;2532;52.480;13.354;2023-06-22T13:33:53;8.10;;;7.30;;
5026;SDS011;2532;52.480;13.354;2023-06-22T13:36:20;10.43;;;6.57;;
5026;SDS011;2532;52.480;13.354;2023-06-22T13:38:48;10.57;;;8.77;;
5026;SDS011;2532;52.480;13.354;2023-06-22T13:41:15;7.57;;;6.37;;
5026;SDS011;2532;52.480;13.354;2023-06-22T13:43:42;12.30;;;8.17;;
5026;SDS011;2532;52.480;13.354;2023-06-22T13:46:10;8.40;;;7.30;;
5026;SDS011;2532;52.480;13.354;2023-06-22T13:48:37;9.33;;;7.30;;
5026;SDS011;2532;52.480;13.354;2023-06-22T13:51:04;9.27;;;6.70;;
5026;SDS011;2532;52.480;13.354;2023-06-22T13:53:31;8.03;;;6.57;;
5026;SDS011;2532;52.480;13.354;2023-06-22T13:55:58;7.07;;;6.37;;
5026;SDS011;2532;52.480;13.354;2023-06-22T13:58:25;8.23;;;6.73;;
5026;SDS011;2532;52.480;13.354;2023-06-22T14:00:51;9.50;;;6.73;;
5026;SDS011;2532;52.480;13.354;2023-06-22T14:03:20;8.03;;;6.93;;
5026;SDS011;2532;52.480;13.354;2023-06-22T14:05:47;8.00;;;6.67;;
5026;SDS011;2532;52.480;13.354;2023-06-22T14:08:13;8.27;;;6.73;;
5026;SDS011;2532;52.480;13.354;2023-06-22T14:10:40;7.73;;;6.97;;
5026;SDS011;2532;52.480;13.354;2023-06-22T14:13:07;8.07;;;7.30;;
5026;SDS011;2532;52.480;13.354;2023-06-22T14:15:34;10.83;;;6.70;;
5026;SDS011;2532;52.480;13.354;2023-06-22T14:18:01;9.90;;;6.80;;
5026;SDS011;2532;52.480;13.354;2023-06-22T14:20:29;7.90;;;7.10;;
5026;SDS011;2532;52.480;13.354;2023-06-22T14:22:56;7.17;;;6.23;;
5026;SDS011;2532;52.480;13.354;2023-06-22T14:25:23;8.53;;;7.00;;
5026;SDS011;2532;52.480;13.354;2023-06-22T14:27:49;10.93;;;9.57;;
5026;SDS011;2532;52.480;13.354;2023-06-22T14:30:16;7.83;;;7.03;;
5026;SDS011;2532;52.480;13.354;2023-06-22T14:32:43;7.03;;;6.33;;
5026;SDS011;2532;52.480;13.354;2023-06-22T14:35:11;8.83;;;6.23;;
5026;SDS011;2532;52.480;13.354;2023-06-22T14:37:39;9.50;;;7.07;;
5026;SDS011;2532;52.480;13.354;2023-06-22T14:40:06;9.53;;;6.77;;
5026;SDS011;2532;52.480;13.354;2023-06-22T14:42:34;9.73;;;7.17;;
5026;SDS011;2532;52.480;13.354;2023-06-22T14:45:01;13.27;;;6.47;;
5026;SDS011;2532;52.480;13.354;2023-06-22T14:47:27;7.70;;;6.50;;
5026;SDS011;2532;52.480;13.354;2023-06-22T14:49:54;7.57;;;6.67;;
5026;SDS011;2532;52.480;13.354;2023-06-22T14:52:21;7.83;;;6.50;;
5026;SDS011;2532;52.480;13.354;2023-06-22T14:54:49;8.13;;;6.57;;
5026;SDS011;2532;52.480;13.354;2023-06-22T14:57:17;7.87;;;6.00;;
5026;SDS011;2532;52.480;13.354;2023-06-22T14:59:45;7.03;;;6.33;;
5026;SDS011;2532;52.480;13.354;2023-06-22T15:02:12;13.83;;;6.23;;
5026;SDS011;2532;52.480;13.354;2023-06-22T15:04:39;7.10;;;5.10;;
5026;SDS011;2532;52.480;13.354;2023-06-22T15:07:06;9.90;;;8.87;;
5026;SDS011;2532;52.480;13.354;2023-06-22T15:09:33;7.77;;;6.00;;
5026;SDS011;2532;52.480;13.354;2023-06-22T15:12:01;10.97;;;7.30;;
5026;SDS011;2532;52.480;13.354;2023-06-22T15:14:30;10.27;;;6.03;;
5026;SDS011;2532;52.480;13.354;2023-06-22T15:16:57;8.90;;;6.87;;
5026;SDS011;2532;52.480;13.354;2023-06-22T15:19:24;7.90;;;6.23;;
5026;SDS011;2532;52.480;13.354;2023-06-22T15:21:51;6.97;;;6.27;;
5026;SDS011;2532;52.480;13.354;2023-06-22T15:24:18;6.93;;;6.13;;
5026;SDS011;2532;52.480;13.354;2023-06-22T15:26:45;8.10;;;6.40;;
5026;SDS011;2532;52.480;13.354;2023-06-22T15:29:13;8.10;;;6.57;;
5026;SDS011;2532;52.480;13.354;2023-06-22T15:31:40;9.30;;;6.10;;
5026;SDS011;2532;52.480;13.354;2023-06-22T15:34:06;7.83;;;6.80;;
5026;SDS011;2532;52.480;13.354;2023-06-22T15:36:34;8.13;;;6.20;;
5026;SDS011;2532;52.480;13.354;2023-06-22T15:39:01;7.00;;;6.30;;
5026;SDS011;2532;52.480;13.354;2023-06-22T15:41:28;8.00;;;6.80;;
5026;SDS011;2532;52.480;13.354;2023-06-22T15:43:55;13.27;;;7.00;;
5026;SDS011;2532;52.480;13.354;2023-06-22T15:46:23;10.20;;;6.30;;
5026;SDS011;2532;52.480;13.354;2023-06-22T15:48:50;7.67;;;6.70;;
5026;SDS011;2532;52.480;13.354;2023-06-22T15:51:17;8.27;;;6.33;;
5026;SDS011;2532;52.480;13.354;2023-06-22T15:53:44;10.27;;;7.40;;
5026;SDS011;2532;52.480;13.354;2023-06-22T15:56:11;10.43;;;6.53;;
5026;SDS011;2532;52.480;13.354;2023-06-22T15:58:38;9.40;;;7.07;;
5026;SDS011;2532;52.480;13.354;2023-06-22T16:01:05;9.07;;;7.53;;
5026;SDS011;2532;52.480;13.354;2023-06-22T16:03:35;11.97;;;8.40;;
5026;SDS011;2532;52.480;13.354;2023-06-22T16:06:03;10.20;;;7.67;;
5026;SDS011;2532;52.480;13.354;2023-06-22T16:08:30;16.13;;;6.80;;
5026;SDS011;2532;52.480;13.354;2023-06-22T16:10:58;15.30;;;5.90;;
5026;SDS011;2532;52.480;13.354;2023-06-22T16:13:25;6.90;;;6.20;;
5026;SDS011;2532;52.480;13.354;2023-06-22T16:15:52;6.83;;;5.87;;
5026;SDS011;2532;52.480;13.354;2023-06-22T16:18:19;7.30;;;6.57;;
5026;SDS011;2532;52.480;13.354;2023-06-22T16:20:47;8.20;;;6.13;;
5026;SDS011;2532;52.480;13.354;2023-06-22T16:23:14;6.50;;;5.80;;
5026;SDS011;2532;52.480;13.354;2023-06-22T16:25:42;8.13;;;6.43;;
5026;SDS011;2532;52.480;13.354;2023-06-22T16:28:09;7.27;;;6.57;;
5026;SDS011;2532;52.480;13.354;2023-06-22T16:30:36;10.43;;;6.50;;
5026;SDS011;2532;52.480;13.354;2023-06-22T16:33:03;7.13;;;6.10;;
5026;SDS011;2532;52.480;13.354;2023-06-22T16:35:30;11.03;;;6.37;;
5026;SDS011;2532;52.480;13.354;2023-06-22T16:38:00;8.90;;;6.47;;
5026;SDS011;2532;52.480;13.354;2023-06-22T16:40:27;7.20;;;6.17;;
5026;SDS011;2532;52.480;13.354;2023-06-22T16:42:54;6.83;;;6.00;;
5026;SDS011;2532;52.480;13.354;2023-06-22T16:45:20;6.73;;;6.13;;
5026;SDS011;2532;52.480;13.354;2023-06-22T16:47:49;7.50;;;6.43;;
5026;SDS011;2532;52.480;13.354;2023-06-22T16:50:17;6.93;;;6.23;;
5026;SDS011;2532;52.480;13.354;2023-06-22T16:52:44;10.60;;;8.20;;
5026;SDS011;2532;52.480;13.354;2023-06-22T16:55:13;7.77;;;7.00;;
5026;SDS011;2532;52.480;13.354;2023-06-22T16:57:40;7.40;;;6.70;;
5026;SDS011;2532;52.480;13.354;2023-06-22T17:00:08;14.50;;;6.80;;
5026;SDS011;2532;52.480;13.354;2023-06-22T17:02:38;9.33;;;7.13;;
5026;SDS011;2532;52.480;13.354;2023-06-22T17:05:09;10.67;;;6.60;;
5026;SDS011;2532;52.480;13.354;2023-06-22T17:07:37;6.77;;;6.00;;
5026;SDS011;2532;52.480;13.354;2023-06-22T17:10:13;8.93;;;6.50;;
5026;SDS011;2532;52.480;13.354;2023-06-22T17:12:41;7.10;;;6.40;;
5026;SDS011;2532;52.480;13.354;2023-06-22T17:15:10;8.03;;;6.40;;
5026;SDS011;2532;52.480;13.354;2023-06-22T17:17:38;7.03;;;6.40;;
5026;SDS011;2532;52.480;13.354;2023-06-22T17:20:06;7.60;;;6.70;;
5026;SDS011;2532;52.480;13.354;2023-06-22T17:22:34;12.10;;;10.03;;
5026;SDS011;2532;52.480;13.354;2023-06-22T17:25:03;8.20;;;6.37;;
5026;SDS011;2532;52.480;13.354;2023-06-22T17:27:34;8.60;;;7.70;;
5026;SDS011;2532;52.480;13.354;2023-06-22T17:30:05;8.33;;;6.63;;
5026;SDS011;2532;52.480;13.354;2023-06-22T17:32:32;9.20;;;6.70;;
5026;SDS011;2532;52.480;13.354;2023-06-22T17:34:59;7.93;;;6.93;;
5026;SDS011;2532;52.480;13.354;2023-06-22T17:37:28;7.20;;;6.47;;
5026;SDS011;2532;52.480;13.354;2023-06-22T17:39:58;7.30;;;6.60;;
5026;SDS011;2532;52.480;13.354;2023-06-22T17:42:25;7.47;;;6.77;;
5026;SDS011;2532;52.480;13.354;2023-06-22T17:45:01;7.13;;;6.37;;
5026;SDS011;2532;52.480;13.354;2023-06-22T17:47:28;8.03;;;6.90;;
5026;SDS011;2532;52.480;13.354;2023-06-22T17:50:03;8.00;;;6.70;;
5026;SDS011;2532;52.480;13.354;2023-06-22T17:52:30;7.57;;;6.60;;
5026;SDS011;2532;52.480;13.354;2023-06-22T17:54:57;9.40;;;6.27;;
5026;SDS011;2532;52.480;13.354;2023-06-22T17:57:27;9.10;;;7.20;;
5026;SDS011;2532;52.480;13.354;2023-06-22T18:00:02;7.70;;;6.30;;
5026;SDS011;2532;52.480;13.354;2023-06-22T18:02:35;7.20;;;6.33;;
5026;SDS011;2532;52.480;13.354;2023-06-22T18:05:04;9.00;;;8.10;;
5026;SDS011;2532;52.480;13.354;2023-06-22T18:07:32;7.70;;;6.27;;
5026;SDS011;2532;52.480;13.354;2023-06-22T18:10:01;6.87;;;6.10;;
5026;SDS011;2532;52.480;13.354;2023-06-22T18:12:29;7.90;;;6.43;;
5026;SDS011;2532;52.480;13.354;2023-06-22T18:14:55;10.90;;;6.57;;
5026;SDS011;2532;52.480;13.354;2023-06-22T18:17:24;8.37;;;7.33;;
5026;SDS011;2532;52.480;13.354;2023-06-22T18:19:52;8.73;;;6.87;;
5026;SDS011;2532;52.480;13.354;2023-06-22T18:22:20;6.73;;;6.03;;
5026;SDS011;2532;52.480;13.354;2023-06-22T18:24:48;7.27;;;6.27;;
5026;SDS011;2532;52.480;13.354;2023-06-22T18:27:15;11.47;;;8.97;;
5026;SDS011;2532;52.480;13.354;2023-06-22T18:29:43;7.73;;;6.93;;
5026;SDS011;2532;52.480;13.354;2023-06-22T18:32:10;8.73;;;7.40;;
5026;SDS011;2532;52.480;13.354;2023-06-22T18:34:39;8.77;;;7.33;;
5026;SDS011;2532;52.480;13.354;2023-06-22T18:37:08;9.60;;;8.57;;
5026;SDS011;2532;52.480;13.354;2023-06-22T18:39:38;7.13;;;6.43;;
5026;SDS011;2532;52.480;13.354;2023-06-22T18:42:08;7.77;;;7.00;;
5026;SDS011;2532;52.480;13.354;2023-06-22T18:44:39;7.57;;;6.80;;
5026;SDS011;2532;52.480;13.354;2023-06-22T18:47:08;8.57;;;7.77;;
5026;SDS011;2532;52.480;13.354;2023-06-22T18:49:46;7.37;;;6.67;;
5026;SDS011;2532;52.480;13.354;2023-06-22T18:52:14;7.60;;;6.80;;
5026;SDS011;2532;52.480;13.354;2023-06-22T18:54:42;9.80;;;7.03;;
5026;SDS011;2532;52.480;13.354;2023-06-22T18:57:14;8.90;;;7.80;;
5026;SDS011;2532;52.480;13.354;2023-06-22T18:59:46;9.50;;;6.90;;